EKBI/BLL METAR and TAF weather

Enter ICAO airport designator
Station Type Date Time Source
EKBI METAR 2022/06/27 17:20 UTC NOAA

EKBI 271720Z AUTO 30009KT 260V320 8000 -RA BKN005/// OVC040/// 14/14 Q1016


Station Type Date Time Source
EKBI Decoded METAR 2022/06/27 17:20 UTC NOAA

Billund Lufthavn, Denmark (EKBI) 55-44N 009-10E 79M
Jun 27, 2022 - 01:20 PM EDT / 2022.06.27 1720 UTC
Wind: from the WNW (300 degrees) at 10 MPH (9 KT) (direction variable):0
Visibility: 4 mile(s):0
Sky conditions: overcast
Weather: light rain
Temperature: 57 F (14 C)
Dew Point: 57 F (14 C)
Relative Humidity: 100%
Pressure (altimeter): 30.00 in. Hg (1016 hPa)
ob: EKBI 271720Z AUTO 30009KT 260V320 8000 -RA BKN005/// OVC040/// 14/14 Q1016
cycle: 17

Station Type Date Time Source
EKBI TAF 2022/06/27 18:30 UTC NOAA

TAF EKBI 271702Z 2718/2818 30010KT 9999 FEW020 BKN045
TEMPO 2718/2721 4000 RADZ BKN008
TEMPO 2800/2806 1500 BR
BECMG 2801/2803 24010KT

Example: see airport list